»·PEaware :: BOE561 KBUR-KLAS

BOE561 :: KBUR-KLAS

FLIGHT INFORMATION

Flight Status: Arrived
Operator:
Boeing Commercial Airplane Group
More flights by this operator :: More flights under this callsign
Pilot: Ben F. (2808)
Aircraft: BOEING 737-200
(B732)
More flights by this aircraft type
Origin: KBUR Bob Hope-Burbank
United States
Destination: KLAS McCarran Intl
United States
More flights between these airports :: More routes between these airports
Route: VNY3 DAG CLARR3
File this flight plan on PilotEdge
Remarks:
Altitude:
(Current/Filed)
25,000ft
Speed:
(Current/Filed)
445kts
Departed: 28-Sep-18 04:42 PM
Arrived: 28-Sep-18 05:27 PM
Distance/Time
Traveled:
194nm/0:44
Distance/Time
To Go:
Arrived

Flight Plot

Page will automatically refresh every two minutes.

Flight plan parsing failed; only flown route is shown


Map Options




Map Legend


Flown Route
Filed Route
Departure Airport
Arrival Airport
Navaid (VOR, NDB)
Fix

Horizontal Profiles

Position Reports

Time Latitude Longitude Heading Altitude Ground
Speed
28-Sep-18 16:30 34.200036 -118.358592 263 785ft 0kts
28-Sep-18 16:31 34.200036 -118.358592 263 785ft 0kts
28-Sep-18 16:32 34.200036 -118.358592 263 785ft 0kts
28-Sep-18 16:33 34.200036 -118.358592 263 785ft 0kts
28-Sep-18 16:34 34.200036 -118.358592 263 785ft 0kts
28-Sep-18 16:35 34.200036 -118.358592 263 785ft 0kts
28-Sep-18 16:36 34.200036 -118.358592 263 785ft 0kts
28-Sep-18 16:37 34.200036 -118.358592 263 785ft 0kts
28-Sep-18 16:38 34.199666 -118.358641 118 785ft 3kts
28-Sep-18 16:39 34.201535 -118.358645 346 785ft 12kts
28-Sep-18 16:40 34.206379 -118.359935 347 785ft 19kts
28-Sep-18 16:41 34.211374 -118.361344 348 785ft 14kts
28-Sep-18 16:42 34.211949 -118.361361 34 785ft 0kts
28-Sep-18 16:43 34.211634 -118.360277 166 785ft 0kts
28-Sep-18 16:44 34.185625 -118.353839 179 1097ft 176kts
28-Sep-18 16:45 34.146879 -118.386673 224 3129ft 204kts
28-Sep-18 16:46 34.150441 -118.451651 330 4960ft 268kts
28-Sep-18 16:47 34.225592 -118.466988 352 7480ft 289kts
28-Sep-18 16:48 34.306287 -118.480235 352 9947ft 299kts
28-Sep-18 16:49 34.388036 -118.471474 43 11664ft 323kts
28-Sep-18 16:50 34.431442 -118.380350 55 13077ft 346kts
28-Sep-18 16:51 34.491796 -118.286616 53 14047ft 379kts
28-Sep-18 16:52 34.554845 -118.184345 54 15952ft 376kts
28-Sep-18 16:53 34.617060 -118.082660 60 17465ft 382kts
28-Sep-18 16:54 34.640577 -117.958222 83 18750ft 386kts
28-Sep-18 16:55 34.654865 -117.828943 84 19917ft 393kts
28-Sep-18 16:56 34.678319 -117.699136 74 20961ft 402kts
28-Sep-18 16:57 34.711353 -117.568418 74 21907ft 409kts
28-Sep-18 16:58 34.745046 -117.435765 74 22726ft 416kts
28-Sep-18 16:59 34.778360 -117.304064 74 23498ft 420kts
28-Sep-18 17:00 34.812043 -117.170215 74 24156ft 425kts
28-Sep-18 17:01 34.846568 -117.032211 74 24754ft 430kts
28-Sep-18 17:02 34.881560 -116.892476 73 24875ft 445kts
28-Sep-18 17:03 34.912513 -116.772171 72 24862ft 457kts
28-Sep-18 17:04 34.958802 -116.598914 61 24846ft 470kts
28-Sep-18 17:05 35.042824 -116.478162 45 24890ft 473kts
28-Sep-18 17:06 35.117183 -116.384228 44 24912ft 469kts
28-Sep-18 17:07 35.202482 -116.277571 45 23592ft 448kts
28-Sep-18 17:08 35.298923 -116.156703 45 21201ft 418kts
28-Sep-18 17:09 35.364207 -116.074676 45 19494ft 402kts
28-Sep-18 17:10 35.439585 -115.979759 45 17424ft 387kts
28-Sep-18 17:11 35.512884 -115.887247 45 15333ft 375kts
28-Sep-18 17:12 35.583693 -115.797680 45 13384ft 361kts
28-Sep-18 17:13 35.648862 -115.715070 45 13033ft 321kts
28-Sep-18 17:14 35.710217 -115.635153 47 13033ft 325kts
28-Sep-18 17:15 35.782615 -115.579290 3 13049ft 323kts
28-Sep-18 17:16 35.871888 -115.574757 358 13030ft 320kts
28-Sep-18 17:17 35.959706 -115.573957 358 13037ft 318kts
28-Sep-18 17:18 36.033736 -115.531141 70 13044ft 319kts
28-Sep-18 17:19 36.033746 -115.425384 95 11577ft 305kts
28-Sep-18 17:20 36.027335 -115.326750 97 11011ft 292kts
28-Sep-18 17:21 36.020733 -115.232470 97 10051ft 279kts
28-Sep-18 17:22 36.014196 -115.140904 97 8460ft 266kts
28-Sep-18 17:23 36.011535 -115.051000 91 6737ft 262kts
28-Sep-18 17:24 36.016543 -114.963355 78 5102ft 257kts
28-Sep-18 17:25 36.071347 -114.944509 320 5036ft 259kts
28-Sep-18 17:26 36.076721 -115.022354 251 3877ft 230kts
28-Sep-18 17:27 36.073777 -115.088062 269 2829ft 163kts
28-Sep-18 17:28 36.073599 -115.138781 272 2150ft 116kts
28-Sep-18 17:29 36.075539 -115.151495 332 2150ft 13kts
28-Sep-18 17:30 36.077907 -115.149302 94 2150ft 20kts
28-Sep-18 17:31 36.078069 -115.142318 41 2150ft 12kts
28-Sep-18 17:32 36.079904 -115.140410 56 2150ft 0kts
28-Sep-18 17:33 36.079904 -115.140410 56 2150ft 0kts

Navigation Log

Ident Type
Flight plan parsing failed, navigation log unavailable